sensor_id;sensor_type;location;lat;lon;timestamp;temperature;humidity
30893;DHT22;17595;50.884;4.346;2023-09-19T00:00:34;18.60;99.90
30893;DHT22;17595;50.884;4.346;2023-09-19T00:03:01;18.70;99.90
30893;DHT22;17595;50.884;4.346;2023-09-19T00:05:28;18.60;99.90
30893;DHT22;17595;50.884;4.346;2023-09-19T00:07:55;18.60;99.90
30893;DHT22;17595;50.884;4.346;2023-09-19T00:10:26;18.70;99.90
30893;DHT22;17595;50.884;4.346;2023-09-19T00:12:55;18.70;99.90
30893;DHT22;17595;50.884;4.346;2023-09-19T00:15:24;18.70;99.90
30893;DHT22;17595;50.884;4.346;2023-09-19T00:17:49;18.60;99.90
30893;DHT22;17595;50.884;4.346;2023-09-19T00:20:18;18.70;99.90
30893;DHT22;17595;50.884;4.346;2023-09-19T00:22:44;18.60;99.90
30893;DHT22;17595;50.884;4.346;2023-09-19T00:25:10;18.60;99.90
30893;DHT22;17595;50.884;4.346;2023-09-19T00:27:38;18.60;99.90
30893;DHT22;17595;50.884;4.346;2023-09-19T00:30:08;18.60;99.90
30893;DHT22;17595;50.884;4.346;2023-09-19T00:32:55;18.60;99.90
30893;DHT22;17595;50.884;4.346;2023-09-19T00:35:21;18.60;99.90
30893;DHT22;17595;50.884;4.346;2023-09-19T00:37:50;18.60;99.90
30893;DHT22;17595;50.884;4.346;2023-09-19T00:40:15;18.50;99.90
30893;DHT22;17595;50.884;4.346;2023-09-19T00:42:43;18.60;99.90
30893;DHT22;17595;50.884;4.346;2023-09-19T00:45:10;18.60;99.90
30893;DHT22;17595;50.884;4.346;2023-09-19T00:47:41;18.60;99.90
30893;DHT22;17595;50.884;4.346;2023-09-19T00:50:08;18.60;99.90
30893;DHT22;17595;50.884;4.346;2023-09-19T00:52:36;18.60;99.90
30893;DHT22;17595;50.884;4.346;2023-09-19T00:55:08;18.60;99.90
30893;DHT22;17595;50.884;4.346;2023-09-19T00:57:35;18.60;99.90
30893;DHT22;17595;50.884;4.346;2023-09-19T01:00:05;18.60;99.90
30893;DHT22;17595;50.884;4.346;2023-09-19T01:02:32;18.60;99.90
30893;DHT22;17595;50.884;4.346;2023-09-19T01:05:01;18.40;99.90
30893;DHT22;17595;50.884;4.346;2023-09-19T01:07:30;18.40;99.90
30893;DHT22;17595;50.884;4.346;2023-09-19T01:10:00;18.60;99.90
30893;DHT22;17595;50.884;4.346;2023-09-19T01:12:37;18.60;99.90
30893;DHT22;17595;50.884;4.346;2023-09-19T01:31:21;18.40;99.90
30893;DHT22;17595;50.884;4.346;2023-09-19T01:33:59;18.40;99.90
30893;DHT22;17595;50.884;4.346;2023-09-19T01:36:35;18.50;99.90
30893;DHT22;17595;50.884;4.346;2023-09-19T01:39:06;18.50;99.90
30893;DHT22;17595;50.884;4.346;2023-09-19T01:42:10;18.50;99.90
30893;DHT22;17595;50.884;4.346;2023-09-19T01:47:37;18.40;99.90
30893;DHT22;17595;50.884;4.346;2023-09-19T01:53:06;18.30;99.90
30893;DHT22;17595;50.884;4.346;2023-09-19T01:55:39;18.30;99.90
30893;DHT22;17595;50.884;4.346;2023-09-19T02:00:58;18.30;99.90
30893;DHT22;17595;50.884;4.346;2023-09-19T02:03:26;18.20;99.90
30893;DHT22;17595;50.884;4.346;2023-09-19T02:05:52;18.20;99.90
30893;DHT22;17595;50.884;4.346;2023-09-19T02:08:20;18.30;99.90
30893;DHT22;17595;50.884;4.346;2023-09-19T02:10:49;18.30;99.90
30893;DHT22;17595;50.884;4.346;2023-09-19T02:13:16;18.30;99.90
30893;DHT22;17595;50.884;4.346;2023-09-19T02:15:43;18.40;99.90
30893;DHT22;17595;50.884;4.346;2023-09-19T02:18:14;18.50;99.90
30893;DHT22;17595;50.884;4.346;2023-09-19T02:20:40;18.30;99.90
30893;DHT22;17595;50.884;4.346;2023-09-19T02:23:06;18.40;99.90
30893;DHT22;17595;50.884;4.346;2023-09-19T02:25:33;18.40;99.90
30893;DHT22;17595;50.884;4.346;2023-09-19T02:27:59;18.40;99.90
30893;DHT22;17595;50.884;4.346;2023-09-19T02:30:26;18.50;99.90
30893;DHT22;17595;50.884;4.346;2023-09-19T02:32:52;18.50;99.90
30893;DHT22;17595;50.884;4.346;2023-09-19T02:35:17;18.50;99.90
30893;DHT22;17595;50.884;4.346;2023-09-19T02:37:47;18.50;99.90
30893;DHT22;17595;50.884;4.346;2023-09-19T02:40:12;18.50;99.90
30893;DHT22;17595;50.884;4.346;2023-09-19T02:42:45;18.50;99.90
30893;DHT22;17595;50.884;4.346;2023-09-19T02:45:12;18.50;99.90
30893;DHT22;17595;50.884;4.346;2023-09-19T02:47:40;18.40;99.90
30893;DHT22;17595;50.884;4.346;2023-09-19T02:50:06;18.30;99.90
30893;DHT22;17595;50.884;4.346;2023-09-19T02:52:31;18.40;99.90
30893;DHT22;17595;50.884;4.346;2023-09-19T02:54:57;18.40;99.90
30893;DHT22;17595;50.884;4.346;2023-09-19T02:57:23;18.40;99.90
30893;DHT22;17595;50.884;4.346;2023-09-19T02:59:49;18.30;99.90
30893;DHT22;17595;50.884;4.346;2023-09-19T03:02:15;18.40;99.90
30893;DHT22;17595;50.884;4.346;2023-09-19T03:04:41;18.40;99.90
30893;DHT22;17595;50.884;4.346;2023-09-19T03:07:07;18.50;99.90
30893;DHT22;17595;50.884;4.346;2023-09-19T03:09:32;18.50;99.90
30893;DHT22;17595;50.884;4.346;2023-09-19T03:11:58;18.30;99.90
30893;DHT22;17595;50.884;4.346;2023-09-19T03:14:24;18.10;99.90
30893;DHT22;17595;50.884;4.346;2023-09-19T03:16:50;18.10;99.90
30893;DHT22;17595;50.884;4.346;2023-09-19T03:19:17;18.10;99.90
30893;DHT22;17595;50.884;4.346;2023-09-19T03:21:43;18.00;99.90
30893;DHT22;17595;50.884;4.346;2023-09-19T03:24:09;18.00;99.90
30893;DHT22;17595;50.884;4.346;2023-09-19T03:26:34;18.00;99.90
30893;DHT22;17595;50.884;4.346;2023-09-19T03:29:03;18.10;99.90
30893;DHT22;17595;50.884;4.346;2023-09-19T03:31:31;18.30;99.90
30893;DHT22;17595;50.884;4.346;2023-09-19T03:33:57;18.40;99.90
30893;DHT22;17595;50.884;4.346;2023-09-19T03:36:23;18.40;99.90
30893;DHT22;17595;50.884;4.346;2023-09-19T03:38:48;18.10;99.90
30893;DHT22;17595;50.884;4.346;2023-09-19T03:41:14;18.10;99.90
30893;DHT22;17595;50.884;4.346;2023-09-19T03:43:42;18.20;99.90
30893;DHT22;17595;50.884;4.346;2023-09-19T03:46:08;18.30;99.90
30893;DHT22;17595;50.884;4.346;2023-09-19T03:48:33;18.30;99.90
30893;DHT22;17595;50.884;4.346;2023-09-19T03:50:59;18.30;99.90
30893;DHT22;17595;50.884;4.346;2023-09-19T03:53:25;18.20;99.90
30893;DHT22;17595;50.884;4.346;2023-09-19T03:55:50;18.20;99.90
30893;DHT22;17595;50.884;4.346;2023-09-19T03:58:16;18.10;99.90
30893;DHT22;17595;50.884;4.346;2023-09-19T04:00:41;18.20;99.90
30893;DHT22;17595;50.884;4.346;2023-09-19T04:03:07;18.10;99.90
30893;DHT22;17595;50.884;4.346;2023-09-19T04:05:33;18.00;99.90
30893;DHT22;17595;50.884;4.346;2023-09-19T04:07:59;18.00;99.90
30893;DHT22;17595;50.884;4.346;2023-09-19T04:10:25;18.00;99.90
30893;DHT22;17595;50.884;4.346;2023-09-19T04:12:54;18.10;99.90
30893;DHT22;17595;50.884;4.346;2023-09-19T04:15:21;18.00;99.90
30893;DHT22;17595;50.884;4.346;2023-09-19T04:17:49;18.00;99.90
30893;DHT22;17595;50.884;4.346;2023-09-19T04:20:15;18.10;99.90
30893;DHT22;17595;50.884;4.346;2023-09-19T04:22:42;18.00;99.90
30893;DHT22;17595;50.884;4.346;2023-09-19T04:25:08;18.00;99.90
30893;DHT22;17595;50.884;4.346;2023-09-19T04:27:34;18.00;99.90
30893;DHT22;17595;50.884;4.346;2023-09-19T04:30:00;17.90;99.90
30893;DHT22;17595;50.884;4.346;2023-09-19T04:32:30;17.90;99.90
30893;DHT22;17595;50.884;4.346;2023-09-19T04:34:58;17.90;99.90
30893;DHT22;17595;50.884;4.346;2023-09-19T04:37:27;18.00;99.90
30893;DHT22;17595;50.884;4.346;2023-09-19T04:39:54;18.10;99.90
30893;DHT22;17595;50.884;4.346;2023-09-19T04:42:19;18.10;99.90
30893;DHT22;17595;50.884;4.346;2023-09-19T04:44:46;18.10;99.90
30893;DHT22;17595;50.884;4.346;2023-09-19T04:47:14;18.10;99.90
30893;DHT22;17595;50.884;4.346;2023-09-19T04:49:41;18.10;99.90
30893;DHT22;17595;50.884;4.346;2023-09-19T04:52:07;18.10;99.90
30893;DHT22;17595;50.884;4.346;2023-09-19T04:54:32;18.00;99.90
30893;DHT22;17595;50.884;4.346;2023-09-19T04:57:01;17.80;99.90
30893;DHT22;17595;50.884;4.346;2023-09-19T04:59:26;17.80;99.90
30893;DHT22;17595;50.884;4.346;2023-09-19T05:01:53;17.80;99.90
30893;DHT22;17595;50.884;4.346;2023-09-19T05:04:19;17.80;99.90
30893;DHT22;17595;50.884;4.346;2023-09-19T05:06:44;17.80;99.90
30893;DHT22;17595;50.884;4.346;2023-09-19T05:09:10;17.80;99.90
30893;DHT22;17595;50.884;4.346;2023-09-19T05:11:36;17.70;99.90
30893;DHT22;17595;50.884;4.346;2023-09-19T05:14:03;17.70;99.90
30893;DHT22;17595;50.884;4.346;2023-09-19T05:16:29;17.80;99.90
30893;DHT22;17595;50.884;4.346;2023-09-19T05:18:58;17.80;99.90
30893;DHT22;17595;50.884;4.346;2023-09-19T05:21:26;17.80;99.90
30893;DHT22;17595;50.884;4.346;2023-09-19T05:23:54;17.80;99.90
30893;DHT22;17595;50.884;4.346;2023-09-19T05:26:20;17.90;99.90
30893;DHT22;17595;50.884;4.346;2023-09-19T05:28:46;17.80;99.90
30893;DHT22;17595;50.884;4.346;2023-09-19T05:31:13;17.90;99.90
30893;DHT22;17595;50.884;4.346;2023-09-19T05:33:40;17.90;99.90
30893;DHT22;17595;50.884;4.346;2023-09-19T05:36:06;17.90;99.90
30893;DHT22;17595;50.884;4.346;2023-09-19T05:38:32;17.90;99.90
30893;DHT22;17595;50.884;4.346;2023-09-19T05:40:58;18.00;99.90
30893;DHT22;17595;50.884;4.346;2023-09-19T05:43:23;17.90;99.90
30893;DHT22;17595;50.884;4.346;2023-09-19T05:45:49;17.90;99.90
30893;DHT22;17595;50.884;4.346;2023-09-19T05:48:17;17.90;99.90
30893;DHT22;17595;50.884;4.346;2023-09-19T05:50:43;17.80;99.90
30893;DHT22;17595;50.884;4.346;2023-09-19T05:53:09;17.70;99.90
30893;DHT22;17595;50.884;4.346;2023-09-19T05:55:38;17.70;99.90
30893;DHT22;17595;50.884;4.346;2023-09-19T05:58:04;17.70;99.90
30893;DHT22;17595;50.884;4.346;2023-09-19T06:00:29;17.70;99.90
30893;DHT22;17595;50.884;4.346;2023-09-19T06:02:58;17.60;99.90
30893;DHT22;17595;50.884;4.346;2023-09-19T06:05:25;17.70;99.90
30893;DHT22;17595;50.884;4.346;2023-09-19T06:07:52;17.70;99.90
30893;DHT22;17595;50.884;4.346;2023-09-19T06:10:18;17.80;99.90
30893;DHT22;17595;50.884;4.346;2023-09-19T06:12:46;17.80;99.90
30893;DHT22;17595;50.884;4.346;2023-09-19T06:15:13;17.80;99.90
30893;DHT22;17595;50.884;4.346;2023-09-19T06:17:55;17.90;99.90
30893;DHT22;17595;50.884;4.346;2023-09-19T06:20:21;17.80;99.90
30893;DHT22;17595;50.884;4.346;2023-09-19T06:22:49;17.90;99.90
30893;DHT22;17595;50.884;4.346;2023-09-19T06:25:15;18.00;99.90
30893;DHT22;17595;50.884;4.346;2023-09-19T06:27:42;18.10;99.90
30893;DHT22;17595;50.884;4.346;2023-09-19T06:30:10;18.20;99.90
30893;DHT22;17595;50.884;4.346;2023-09-19T06:32:42;18.20;99.90
30893;DHT22;17595;50.884;4.346;2023-09-19T06:35:12;18.30;99.90
30893;DHT22;17595;50.884;4.346;2023-09-19T06:37:38;18.40;99.90
30893;DHT22;17595;50.884;4.346;2023-09-19T06:40:08;18.40;99.90
30893;DHT22;17595;50.884;4.346;2023-09-19T06:42:42;18.50;99.90
30893;DHT22;17595;50.884;4.346;2023-09-19T06:45:08;18.60;99.90
30893;DHT22;17595;50.884;4.346;2023-09-19T06:47:37;18.40;99.90
30893;DHT22;17595;50.884;4.346;2023-09-19T06:50:02;18.30;99.90
30893;DHT22;17595;50.884;4.346;2023-09-19T06:52:29;18.40;99.90
30893;DHT22;17595;50.884;4.346;2023-09-19T06:54:55;18.50;99.90
30893;DHT22;17595;50.884;4.346;2023-09-19T06:57:21;18.40;99.90
30893;DHT22;17595;50.884;4.346;2023-09-19T06:59:46;18.30;99.90
30893;DHT22;17595;50.884;4.346;2023-09-19T07:02:12;18.30;99.90
30893;DHT22;17595;50.884;4.346;2023-09-19T07:04:39;18.30;99.90
30893;DHT22;17595;50.884;4.346;2023-09-19T07:07:04;18.30;99.90
30893;DHT22;17595;50.884;4.346;2023-09-19T07:09:30;18.30;99.90
30893;DHT22;17595;50.884;4.346;2023-09-19T07:11:56;18.40;99.90
30893;DHT22;17595;50.884;4.346;2023-09-19T07:14:21;18.30;99.90
30893;DHT22;17595;50.884;4.346;2023-09-19T07:16:47;18.20;99.90
30893;DHT22;17595;50.884;4.346;2023-09-19T07:19:14;18.30;99.90
30893;DHT22;17595;50.884;4.346;2023-09-19T07:21:40;18.30;99.90
30893;DHT22;17595;50.884;4.346;2023-09-19T07:24:07;18.30;99.90
30893;DHT22;17595;50.884;4.346;2023-09-19T07:26:33;18.20;99.90
30893;DHT22;17595;50.884;4.346;2023-09-19T07:28:59;18.40;99.90
30893;DHT22;17595;50.884;4.346;2023-09-19T07:31:25;18.60;99.90
30893;DHT22;17595;50.884;4.346;2023-09-19T07:33:52;18.60;99.90
30893;DHT22;17595;50.884;4.346;2023-09-19T07:36:18;18.70;99.90
30893;DHT22;17595;50.884;4.346;2023-09-19T07:38:45;18.70;99.90
30893;DHT22;17595;50.884;4.346;2023-09-19T07:41:10;18.70;99.90
30893;DHT22;17595;50.884;4.346;2023-09-19T07:43:36;18.70;99.90
30893;DHT22;17595;50.884;4.346;2023-09-19T07:46:07;18.80;99.90
30893;DHT22;17595;50.884;4.346;2023-09-19T07:48:37;18.90;99.90
30893;DHT22;17595;50.884;4.346;2023-09-19T07:51:07;19.00;99.90
30893;DHT22;17595;50.884;4.346;2023-09-19T07:53:34;19.00;99.90
30893;DHT22;17595;50.884;4.346;2023-09-19T07:56:07;18.90;99.90
30893;DHT22;17595;50.884;4.346;2023-09-19T07:58:34;19.10;99.90
30893;DHT22;17595;50.884;4.346;2023-09-19T08:01:07;19.00;99.90
30893;DHT22;17595;50.884;4.346;2023-09-19T08:03:33;18.80;99.90
30893;DHT22;17595;50.884;4.346;2023-09-19T08:06:00;18.70;99.90
30893;DHT22;17595;50.884;4.346;2023-09-19T08:08:28;18.70;99.90
30893;DHT22;17595;50.884;4.346;2023-09-19T08:10:54;18.50;99.90
30893;DHT22;17595;50.884;4.346;2023-09-19T08:13:22;18.50;99.90
30893;DHT22;17595;50.884;4.346;2023-09-19T08:15:48;18.50;99.90
30893;DHT22;17595;50.884;4.346;2023-09-19T08:18:16;18.50;99.90
30893;DHT22;17595;50.884;4.346;2023-09-19T08:20:41;18.60;99.90
30893;DHT22;17595;50.884;4.346;2023-09-19T08:23:11;18.70;99.90
30893;DHT22;17595;50.884;4.346;2023-09-19T08:25:37;18.80;99.90
30893;DHT22;17595;50.884;4.346;2023-09-19T08:28:04;18.80;99.90
30893;DHT22;17595;50.884;4.346;2023-09-19T08:30:34;19.00;99.90
30893;DHT22;17595;50.884;4.346;2023-09-19T08:33:00;18.90;99.90
30893;DHT22;17595;50.884;4.346;2023-09-19T08:35:29;19.00;99.90
30893;DHT22;17595;50.884;4.346;2023-09-19T08:37:55;19.00;99.90
30893;DHT22;17595;50.884;4.346;2023-09-19T08:40:21;19.20;99.90
30893;DHT22;17595;50.884;4.346;2023-09-19T08:42:48;19.20;99.90
30893;DHT22;17595;50.884;4.346;2023-09-19T08:45:15;19.10;99.90
30893;DHT22;17595;50.884;4.346;2023-09-19T08:50:31;19.20;99.90
30893;DHT22;17595;50.884;4.346;2023-09-19T08:53:08;19.30;99.90
30893;DHT22;17595;50.884;4.346;2023-09-19T08:55:36;19.40;99.90
30893;DHT22;17595;50.884;4.346;2023-09-19T08:58:04;19.70;99.90
30893;DHT22;17595;50.884;4.346;2023-09-19T09:00:32;19.90;99.90
30893;DHT22;17595;50.884;4.346;2023-09-19T09:02:59;20.10;99.90
30893;DHT22;17595;50.884;4.346;2023-09-19T09:05:27;19.80;99.90
30893;DHT22;17595;50.884;4.346;2023-09-19T09:07:53;19.80;99.90
30893;DHT22;17595;50.884;4.346;2023-09-19T09:10:22;19.90;99.90
30893;DHT22;17595;50.884;4.346;2023-09-19T09:12:52;19.80;99.90
30893;DHT22;17595;50.884;4.346;2023-09-19T09:15:22;19.80;99.90
30893;DHT22;17595;50.884;4.346;2023-09-19T09:17:50;19.90;99.90
30893;DHT22;17595;50.884;4.346;2023-09-19T09:20:17;19.80;99.90
30893;DHT22;17595;50.884;4.346;2023-09-19T09:22:54;20.00;99.90
30893;DHT22;17595;50.884;4.346;2023-09-19T09:25:20;20.10;99.90
30893;DHT22;17595;50.884;4.346;2023-09-19T09:28:01;19.90;99.90
30893;DHT22;17595;50.884;4.346;2023-09-19T09:30:34;20.00;99.90
30893;DHT22;17595;50.884;4.346;2023-09-19T09:33:10;20.00;99.90
30893;DHT22;17595;50.884;4.346;2023-09-19T09:35:58;20.20;99.90
30893;DHT22;17595;50.884;4.346;2023-09-19T09:38:27;20.40;99.90
30893;DHT22;17595;50.884;4.346;2023-09-19T09:40:55;20.20;99.90
30893;DHT22;17595;50.884;4.346;2023-09-19T09:43:34;20.30;99.90
30893;DHT22;17595;50.884;4.346;2023-09-19T09:46:15;20.40;99.90
30893;DHT22;17595;50.884;4.346;2023-09-19T09:49:03;20.40;99.90
30893;DHT22;17595;50.884;4.346;2023-09-19T09:51:42;20.10;99.90
30893;DHT22;17595;50.884;4.346;2023-09-19T09:54:18;19.90;99.90
30893;DHT22;17595;50.884;4.346;2023-09-19T09:56:57;20.10;99.90
30893;DHT22;17595;50.884;4.346;2023-09-19T10:02:16;20.00;99.90
30893;DHT22;17595;50.884;4.346;2023-09-19T10:04:51;19.60;99.90
30893;DHT22;17595;50.884;4.346;2023-09-19T10:07:31;19.60;99.90
30893;DHT22;17595;50.884;4.346;2023-09-19T10:10:03;19.70;99.90
30893;DHT22;17595;50.884;4.346;2023-09-19T10:12:44;19.70;99.90
30893;DHT22;17595;50.884;4.346;2023-09-19T10:15:15;19.70;99.90
30893;DHT22;17595;50.884;4.346;2023-09-19T10:17:44;19.70;99.90
30893;DHT22;17595;50.884;4.346;2023-09-19T10:20:14;19.80;99.90
30893;DHT22;17595;50.884;4.346;2023-09-19T10:23:18;19.90;99.90
30893;DHT22;17595;50.884;4.346;2023-09-19T10:25:53;19.80;99.90
30893;DHT22;17595;50.884;4.346;2023-09-19T10:28:20;19.70;99.90
30893;DHT22;17595;50.884;4.346;2023-09-19T10:30:50;19.80;99.90
30893;DHT22;17595;50.884;4.346;2023-09-19T10:33:18;19.90;99.90
30893;DHT22;17595;50.884;4.346;2023-09-19T10:35:48;19.80;99.90
30893;DHT22;17595;50.884;4.346;2023-09-19T10:38:17;19.90;99.90
30893;DHT22;17595;50.884;4.346;2023-09-19T10:40:44;20.00;99.90
30893;DHT22;17595;50.884;4.346;2023-09-19T10:43:15;19.90;99.90
30893;DHT22;17595;50.884;4.346;2023-09-19T10:45:44;19.80;99.90
30893;DHT22;17595;50.884;4.346;2023-09-19T10:48:10;19.70;99.90
30893;DHT22;17595;50.884;4.346;2023-09-19T10:50:48;19.70;99.90
30893;DHT22;17595;50.884;4.346;2023-09-19T10:53:16;19.80;99.90
30893;DHT22;17595;50.884;4.346;2023-09-19T10:55:49;19.80;99.90
30893;DHT22;17595;50.884;4.346;2023-09-19T10:58:28;19.90;99.90
30893;DHT22;17595;50.884;4.346;2023-09-19T11:00:58;19.90;99.90
30893;DHT22;17595;50.884;4.346;2023-09-19T11:03:35;20.00;99.90
30893;DHT22;17595;50.884;4.346;2023-09-19T11:06:16;20.10;99.90
30893;DHT22;17595;50.884;4.346;2023-09-19T11:11:41;20.20;99.90
30893;DHT22;17595;50.884;4.346;2023-09-19T11:30:38;20.60;99.90
30893;DHT22;17595;50.884;4.346;2023-09-19T11:33:27;20.40;99.90
30893;DHT22;17595;50.884;4.346;2023-09-19T11:36:05;20.60;99.90
30893;DHT22;17595;50.884;4.346;2023-09-19T11:49:19;21.10;99.90
30893;DHT22;17595;50.884;4.346;2023-09-19T11:51:51;21.30;99.90
30893;DHT22;17595;50.884;4.346;2023-09-19T11:54:20;21.10;99.90
30893;DHT22;17595;50.884;4.346;2023-09-19T11:56:51;21.00;99.90
30893;DHT22;17595;50.884;4.346;2023-09-19T11:59:21;21.10;99.90
30893;DHT22;17595;50.884;4.346;2023-09-19T12:01:55;21.20;99.90
30893;DHT22;17595;50.884;4.346;2023-09-19T12:04:42;21.30;99.90
30893;DHT22;17595;50.884;4.346;2023-09-19T12:07:11;21.60;99.90
30893;DHT22;17595;50.884;4.346;2023-09-19T12:12:10;21.80;99.90
30893;DHT22;17595;50.884;4.346;2023-09-19T12:14:38;21.70;99.90
30893;DHT22;17595;50.884;4.346;2023-09-19T12:17:04;22.00;99.90
30893;DHT22;17595;50.884;4.346;2023-09-19T12:19:30;22.20;99.90
30893;DHT22;17595;50.884;4.346;2023-09-19T12:21:57;22.10;99.90
30893;DHT22;17595;50.884;4.346;2023-09-19T12:24:24;21.70;99.90
30893;DHT22;17595;50.884;4.346;2023-09-19T12:26:52;21.50;99.90
30893;DHT22;17595;50.884;4.346;2023-09-19T12:29:21;21.60;99.90
30893;DHT22;17595;50.884;4.346;2023-09-19T12:31:57;21.70;99.90
30893;DHT22;17595;50.884;4.346;2023-09-19T12:34:27;22.00;99.90
30893;DHT22;17595;50.884;4.346;2023-09-19T12:37:13;22.00;99.90
30893;DHT22;17595;50.884;4.346;2023-09-19T12:39:52;22.00;99.90
30893;DHT22;17595;50.884;4.346;2023-09-19T12:42:27;21.90;99.90
30893;DHT22;17595;50.884;4.346;2023-09-19T12:44:56;21.80;99.90
30893;DHT22;17595;50.884;4.346;2023-09-19T12:47:24;21.70;99.90
30893;DHT22;17595;50.884;4.346;2023-09-19T12:52:44;21.80;99.90
30893;DHT22;17595;50.884;4.346;2023-09-19T12:55:28;22.10;99.90
30893;DHT22;17595;50.884;4.346;2023-09-19T12:58:08;22.10;99.90
30893;DHT22;17595;50.884;4.346;2023-09-19T13:00:35;22.30;99.90
30893;DHT22;17595;50.884;4.346;2023-09-19T13:05:55;22.20;99.90
30893;DHT22;17595;50.884;4.346;2023-09-19T13:08:30;22.10;99.90
30893;DHT22;17595;50.884;4.346;2023-09-19T13:11:09;22.10;99.90
30893;DHT22;17595;50.884;4.346;2023-09-19T13:13:37;22.30;99.90
30893;DHT22;17595;50.884;4.346;2023-09-19T13:16:03;22.40;99.90
30893;DHT22;17595;50.884;4.346;2023-09-19T13:19:03;22.50;99.90
30893;DHT22;17595;50.884;4.346;2023-09-19T13:21:34;22.70;99.90
30893;DHT22;17595;50.884;4.346;2023-09-19T13:24:25;22.30;99.90
30893;DHT22;17595;50.884;4.346;2023-09-19T13:26:56;22.40;99.90
30893;DHT22;17595;50.884;4.346;2023-09-19T13:29:22;22.50;99.90
30893;DHT22;17595;50.884;4.346;2023-09-19T13:31:51;22.50;99.90
30893;DHT22;17595;50.884;4.346;2023-09-19T13:34:19;22.90;99.90
30893;DHT22;17595;50.884;4.346;2023-09-19T13:36:45;23.00;99.90
30893;DHT22;17595;50.884;4.346;2023-09-19T13:39:15;23.20;99.90
30893;DHT22;17595;50.884;4.346;2023-09-19T13:41:43;23.40;99.90
30893;DHT22;17595;50.884;4.346;2023-09-19T13:44:09;23.60;99.90
30893;DHT22;17595;50.884;4.346;2023-09-19T13:46:37;23.30;99.90
30893;DHT22;17595;50.884;4.346;2023-09-19T13:49:03;23.00;99.90
30893;DHT22;17595;50.884;4.346;2023-09-19T13:51:31;23.10;99.90
30893;DHT22;17595;50.884;4.346;2023-09-19T13:53:57;23.00;99.90
30893;DHT22;17595;50.884;4.346;2023-09-19T13:56:22;22.80;99.90
30893;DHT22;17595;50.884;4.346;2023-09-19T13:58:49;22.70;99.90
30893;DHT22;17595;50.884;4.346;2023-09-19T14:01:15;22.60;99.90
30893;DHT22;17595;50.884;4.346;2023-09-19T14:03:41;22.50;99.90
30893;DHT22;17595;50.884;4.346;2023-09-19T14:06:12;22.50;99.90
30893;DHT22;17595;50.884;4.346;2023-09-19T14:08:37;22.60;99.90
30893;DHT22;17595;50.884;4.346;2023-09-19T14:11:07;22.50;99.90
30893;DHT22;17595;50.884;4.346;2023-09-19T14:13:32;22.60;99.90
30893;DHT22;17595;50.884;4.346;2023-09-19T14:16:06;22.50;99.90
30893;DHT22;17595;50.884;4.346;2023-09-19T14:18:32;22.50;99.90
30893;DHT22;17595;50.884;4.346;2023-09-19T14:21:01;22.40;99.90
30893;DHT22;17595;50.884;4.346;2023-09-19T14:23:28;22.50;99.90
30893;DHT22;17595;50.884;4.346;2023-09-19T14:25:54;22.70;99.90
30893;DHT22;17595;50.884;4.346;2023-09-19T14:28:19;22.60;99.90
30893;DHT22;17595;50.884;4.346;2023-09-19T14:30:45;22.80;99.90
30893;DHT22;17595;50.884;4.346;2023-09-19T14:33:11;22.90;99.90
30893;DHT22;17595;50.884;4.346;2023-09-19T14:35:37;22.80;99.90
30893;DHT22;17595;50.884;4.346;2023-09-19T14:38:03;22.80;99.90
30893;DHT22;17595;50.884;4.346;2023-09-19T14:40:29;22.80;99.90
30893;DHT22;17595;50.884;4.346;2023-09-19T14:42:55;22.50;99.90
30893;DHT22;17595;50.884;4.346;2023-09-19T14:45:20;22.40;99.90
30893;DHT22;17595;50.884;4.346;2023-09-19T14:47:46;22.40;99.90
30893;DHT22;17595;50.884;4.346;2023-09-19T14:50:12;22.50;99.90
30893;DHT22;17595;50.884;4.346;2023-09-19T14:52:38;22.60;99.90
30893;DHT22;17595;50.884;4.346;2023-09-19T14:55:06;22.40;99.90
30893;DHT22;17595;50.884;4.346;2023-09-19T14:57:32;22.40;99.90
30893;DHT22;17595;50.884;4.346;2023-09-19T14:59:58;22.20;99.90
30893;DHT22;17595;50.884;4.346;2023-09-19T15:02:25;22.20;99.90
30893;DHT22;17595;50.884;4.346;2023-09-19T15:04:52;22.20;99.90
30893;DHT22;17595;50.884;4.346;2023-09-19T15:07:18;22.00;99.90
30893;DHT22;17595;50.884;4.346;2023-09-19T15:09:43;21.80;99.90
30893;DHT22;17595;50.884;4.346;2023-09-19T15:12:09;21.70;99.90
30893;DHT22;17595;50.884;4.346;2023-09-19T15:14:40;22.00;99.90
30893;DHT22;17595;50.884;4.346;2023-09-19T15:17:07;22.20;99.90
30893;DHT22;17595;50.884;4.346;2023-09-19T15:19:33;22.30;99.90
30893;DHT22;17595;50.884;4.346;2023-09-19T15:21:58;22.10;99.90
30893;DHT22;17595;50.884;4.346;2023-09-19T15:24:24;22.20;99.90
30893;DHT22;17595;50.884;4.346;2023-09-19T15:26:52;22.10;99.90
30893;DHT22;17595;50.884;4.346;2023-09-19T15:29:18;22.00;99.90
30893;DHT22;17595;50.884;4.346;2023-09-19T15:31:45;22.10;99.90
30893;DHT22;17595;50.884;4.346;2023-09-19T15:34:10;21.80;99.90
30893;DHT22;17595;50.884;4.346;2023-09-19T15:36:39;21.90;99.90
30893;DHT22;17595;50.884;4.346;2023-09-19T15:39:07;21.80;99.90
30893;DHT22;17595;50.884;4.346;2023-09-19T15:41:40;21.70;99.90
30893;DHT22;17595;50.884;4.346;2023-09-19T15:44:16;21.60;99.90
30893;DHT22;17595;50.884;4.346;2023-09-19T15:46:42;21.60;99.90
30893;DHT22;17595;50.884;4.346;2023-09-19T15:49:08;21.60;99.90
30893;DHT22;17595;50.884;4.346;2023-09-19T15:51:34;21.70;99.90
30893;DHT22;17595;50.884;4.346;2023-09-19T15:54:13;21.60;99.90
30893;DHT22;17595;50.884;4.346;2023-09-19T15:56:40;21.50;99.90
30893;DHT22;17595;50.884;4.346;2023-09-19T15:59:08;21.40;99.90
30893;DHT22;17595;50.884;4.346;2023-09-19T16:01:35;21.50;99.90
30893;DHT22;17595;50.884;4.346;2023-09-19T16:04:00;21.40;99.90
30893;DHT22;17595;50.884;4.346;2023-09-19T16:06:30;21.50;99.90
30893;DHT22;17595;50.884;4.346;2023-09-19T16:08:59;21.50;99.90
30893;DHT22;17595;50.884;4.346;2023-09-19T16:11:26;21.40;99.90
30893;DHT22;17595;50.884;4.346;2023-09-19T16:13:53;21.30;99.90
30893;DHT22;17595;50.884;4.346;2023-09-19T16:16:20;21.30;99.90
30893;DHT22;17595;50.884;4.346;2023-09-19T16:18:53;21.40;99.90
30893;DHT22;17595;50.884;4.346;2023-09-19T16:21:24;21.30;99.90
30893;DHT22;17595;50.884;4.346;2023-09-19T16:23:50;21.40;99.90
30893;DHT22;17595;50.884;4.346;2023-09-19T16:26:17;21.60;99.90
30893;DHT22;17595;50.884;4.346;2023-09-19T16:28:48;21.60;99.90
30893;DHT22;17595;50.884;4.346;2023-09-19T16:31:14;21.50;99.90
30893;DHT22;17595;50.884;4.346;2023-09-19T16:33:43;21.50;99.90
30893;DHT22;17595;50.884;4.346;2023-09-19T16:36:11;21.40;99.90
30893;DHT22;17595;50.884;4.346;2023-09-19T16:38:38;21.40;99.90
30893;DHT22;17595;50.884;4.346;2023-09-19T16:41:04;21.30;99.90
30893;DHT22;17595;50.884;4.346;2023-09-19T16:43:31;21.30;99.90
30893;DHT22;17595;50.884;4.346;2023-09-19T16:46:00;21.20;99.90
30893;DHT22;17595;50.884;4.346;2023-09-19T16:48:27;21.10;99.90